Time;durP1;ratioP1;P1;durP2;ratioP2;P2;SDS_P1;SDS_P2;PMS_P1;PMS_P2;Temp;Humidity;BMP_temperature;BMP_pressure;BME280_temperature;BME280_humidity;BME280_pressure;Samples;Min_cycle;Max_cycle;Signal;HPM_P1;HPM_P2
2023/08/09 00:00:42;;;;;;;105.40;3.00;;;21.30;39.20;;;;;;5036980;28;20273;-81
2023/08/09 00:03:08;;;;;;;106.37;3.10;;;21.10;40.30;;;;;;5040488;28;20268;-81
2023/08/09 00:05:34;;;;;;;105.53;2.77;;;21.00;40.70;;;;;;5039670;28;20279;-81
2023/08/09 00:08:00;;;;;;;105.07;2.60;;;21.00;41.10;;;;;;5035867;28;20410;-81
2023/08/09 00:10:26;;;;;;;105.50;2.80;;;21.00;41.20;;;;;;5035356;28;20200;-81
2023/08/09 00:12:52;;;;;;;105.80;2.90;;;20.90;42.40;;;;;;5034975;28;20268;-81
2023/08/09 00:15:18;;;;;;;106.23;2.70;;;20.90;42.50;;;;;;5035145;28;20186;-81
2023/08/09 00:17:44;;;;;;;105.43;2.50;;;20.90;42.50;;;;;;5035182;28;20440;-81
2023/08/09 00:20:13;;;;;;;105.83;2.77;;;20.80;42.40;;;;;;5035072;28;20660;-81
2023/08/09 00:22:40;;;;;;;106.07;3.13;;;20.70;42.30;;;;;;5035417;28;20504;-81
2023/08/09 00:25:07;;;;;;;106.07;2.90;;;20.70;42.50;;;;;;5035310;28;20481;-81
2023/08/09 00:27:32;;;;;;;105.90;2.67;;;20.70;42.30;;;;;;5033955;28;20491;-81
2023/08/09 00:29:58;;;;;;;106.27;2.97;;;20.70;42.30;;;;;;5035523;28;20925;-81
2023/08/09 00:32:23;;;;;;;106.10;2.70;;;20.70;43.20;;;;;;5035567;28;20335;-81
2023/08/09 00:34:49;;;;;;;106.47;3.03;;;20.70;42.30;;;;;;5035296;28;20203;-81
2023/08/09 00:37:15;;;;;;;106.10;2.70;;;20.60;42.90;;;;;;5029026;28;20190;-81
2023/08/09 00:39:40;;;;;;;106.50;3.10;;;20.70;42.30;;;;;;5028276;28;20217;-81
2023/08/09 00:42:06;;;;;;;106.50;2.87;;;20.70;42.30;;;;;;5035595;28;20275;-81
2023/08/09 00:44:31;;;;;;;106.37;2.80;;;20.70;42.90;;;;;;5032885;28;20218;-81
2023/08/09 00:46:57;;;;;;;107.03;3.23;;;20.80;43.10;;;;;;5031752;28;20195;-81
2023/08/09 00:49:23;;;;;;;106.77;3.10;;;20.90;43.10;;;;;;5026960;28;20586;-81
2023/08/09 00:51:49;;;;;;;106.43;2.70;;;20.70;43.50;;;;;;5029389;28;20184;-81
2023/08/09 00:54:16;;;;;;;106.47;2.70;;;20.90;43.60;;;;;;5036128;28;20445;-81
2023/08/09 00:56:43;;;;;;;106.67;2.87;;;21.10;44.50;;;;;;5036847;28;20528;-81
2023/08/09 00:59:08;;;;;;;107.20;2.90;;;20.90;43.50;;;;;;5037613;28;20438;-81
2023/08/09 01:01:34;;;;;;;106.63;2.97;;;20.90;43.40;;;;;;5037482;28;20898;-81
2023/08/09 01:04:00;;;;;;;106.50;2.60;;;20.90;45.30;;;;;;5033919;28;20210;-81
2023/08/09 01:06:31;;;;;;;106.70;2.60;;;20.80;44.80;;;;;;5034229;28;20559;-81
2023/08/09 01:08:57;;;;;;;107.00;2.93;;;20.80;44.80;;;;;;5034535;28;20204;-81
2023/08/09 01:12:00;;;;;;;106.87;2.73;;;20.60;45.80;;;;;;5030738;28;20452;-81
2023/08/09 01:14:28;;;;;;;106.47;2.73;;;20.10;43.60;;;;;;5034769;28;20209;-81
2023/08/09 01:16:56;;;;;;;106.50;2.70;;;20.30;46.30;;;;;;5036945;28;20788;-81
2023/08/09 01:19:34;;;;;;;106.67;2.60;;;20.90;45.40;;;;;;5036275;28;20448;-81
2023/08/09 01:22:06;;;;;;;106.43;2.57;;;20.50;45.50;;;;;;5037115;28;20443;-81
2023/08/09 01:24:32;;;;;;;107.00;3.07;;;20.50;45.40;;;;;;5038949;28;20842;-81
2023/08/09 01:26:58;;;;;;;107.17;2.90;;;20.80;44.90;;;;;;5033553;28;20412;-81
2023/08/09 01:29:24;;;;;;;106.70;2.70;;;20.70;45.30;;;;;;5033525;28;20515;-81
2023/08/09 01:31:50;;;;;;;107.13;3.03;;;20.80;45.10;;;;;;5029517;28;20436;-81
2023/08/09 01:34:16;;;;;;;107.17;3.00;;;20.70;45.80;;;;;;5031441;28;20437;-83
2023/08/09 01:36:45;;;;;;;107.63;3.00;;;20.50;46.00;;;;;;5031908;28;20193;-83
2023/08/09 01:39:17;;;;;;;107.30;3.00;;;20.50;44.90;;;;;;5026560;28;20454;-82
2023/08/09 01:41:45;;;;;;;107.70;2.90;;;20.50;46.00;;;;;;5031742;28;20444;-83
2023/08/09 01:44:12;;;;;;;107.47;2.90;;;20.60;44.90;;;;;;5030825;28;20835;-82
2023/08/09 01:46:39;;;;;;;108.00;3.07;;;20.70;45.30;;;;;;5033123;28;20578;-81
2023/08/09 01:49:12;;;;;;;107.40;2.90;;;20.90;44.50;;;;;;5033263;28;20948;-82
2023/08/09 01:51:38;;;;;;;108.07;3.33;;;20.80;44.40;;;;;;5033274;28;20404;-81
2023/08/09 01:54:04;;;;;;;107.67;3.10;;;20.70;45.10;;;;;;5033382;28;20462;-81
2023/08/09 01:56:30;;;;;;;107.67;3.00;;;20.70;45.20;;;;;;5032941;28;20417;-81
2023/08/09 01:58:56;;;;;;;107.60;3.00;;;20.80;44.90;;;;;;5032662;28;20743;-82
2023/08/09 02:01:23;;;;;;;107.47;2.77;;;20.80;44.80;;;;;;5033166;28;20178;-82
2023/08/09 02:03:49;;;;;;;107.87;3.13;;;21.20;43.90;;;;;;5029616;28;20174;-82
2023/08/09 02:06:15;;;;;;;109.03;3.43;;;21.00;44.90;;;;;;5032524;28;20454;-82
2023/08/09 02:08:42;;;;;;;107.67;2.93;;;20.90;44.70;;;;;;5032398;28;20234;-82
2023/08/09 02:11:08;;;;;;;108.60;3.30;;;21.30;44.50;;;;;;5032564;28;20444;-82
2023/08/09 02:13:34;;;;;;;108.17;3.37;;;21.20;44.40;;;;;;5032465;28;20494;-82
2023/08/09 02:16:00;;;;;;;108.03;3.07;;;21.00;44.50;;;;;;5032402;28;20175;-82
2023/08/09 02:18:26;;;;;;;107.70;2.93;;;20.90;44.00;;;;;;5029996;28;20452;-81
2023/08/09 02:20:52;;;;;;;107.77;2.93;;;21.00;45.00;;;;;;5032262;28;20430;-81
2023/08/09 02:23:18;;;;;;;107.40;2.80;;;20.90;45.20;;;;;;5032304;28;20186;-82
2023/08/09 02:25:43;;;;;;;107.47;2.83;;;20.80;45.40;;;;;;5030169;28;20567;-82
2023/08/09 02:28:09;;;;;;;107.63;3.00;;;20.80;45.10;;;;;;5029478;28;20181;-81
2023/08/09 02:30:34;;;;;;;107.60;2.90;;;21.00;44.20;;;;;;5032097;28;20570;-81
2023/08/09 02:33:00;;;;;;;108.00;3.23;;;20.70;45.50;;;;;;5029211;28;20213;-81
2023/08/09 02:35:31;;;;;;;108.07;3.07;;;20.80;45.10;;;;;;5027924;28;20191;-81
2023/08/09 02:37:56;;;;;;;107.77;2.93;;;20.80;46.00;;;;;;5032041;28;20241;-81
2023/08/09 02:40:23;;;;;;;107.57;2.70;;;20.60;46.40;;;;;;5031930;28;20876;-81
2023/08/09 02:42:48;;;;;;;107.33;2.60;;;20.50;46.70;;;;;;5031934;28;20550;-81
2023/08/09 02:45:14;;;;;;;107.53;2.70;;;20.40;46.70;;;;;;5031489;28;20461;-81
2023/08/09 02:47:40;;;;;;;108.07;3.20;;;20.60;45.90;;;;;;5031898;28;20174;-81
2023/08/09 02:50:06;;;;;;;107.93;3.10;;;20.80;46.60;;;;;;5031335;28;20437;-81
2023/08/09 02:52:31;;;;;;;107.47;2.53;;;20.50;46.20;;;;;;5031599;28;20267;-81
2023/08/09 02:54:57;;;;;;;107.87;2.93;;;20.50;45.90;;;;;;5031683;28;20529;-82
2023/08/09 02:57:23;;;;;;;107.57;2.67;;;18.30;44.60;;;;;;5032104;28;20551;-82
2023/08/09 02:59:48;;;;;;;108.33;3.00;;;20.60;45.70;;;;;;5031840;28;20205;-81
2023/08/09 03:02:14;;;;;;;109.60;3.60;;;20.70;45.90;;;;;;5032056;28;20544;-81
2023/08/09 03:04:39;;;;;;;108.00;3.00;;;20.70;45.00;;;;;;5031508;28;20238;-81
2023/08/09 03:07:05;;;;;;;108.13;3.13;;;20.50;45.80;;;;;;5031937;28;20189;-81
2023/08/09 03:09:30;;;;;;;108.20;3.20;;;20.90;46.60;;;;;;5031616;28;20191;-81
2023/08/09 03:11:56;;;;;;;107.70;2.60;;;20.60;45.20;;;;;;5031770;28;20593;-81
2023/08/09 03:14:21;;;;;;;108.03;2.97;;;20.90;45.00;;;;;;5031212;28;20193;-81
2023/08/09 03:16:47;;;;;;;108.27;3.10;;;20.80;44.10;;;;;;5031255;28;20178;-81
2023/08/09 03:19:13;;;;;;;108.00;2.90;;;20.60;45.50;;;;;;5031256;28;20220;-81
2023/08/09 03:21:38;;;;;;;108.07;2.90;;;20.60;44.70;;;;;;5031726;28;20174;-81
2023/08/09 03:24:04;;;;;;;109.77;3.10;;;20.50;45.40;;;;;;5031654;28;20176;-81
2023/08/09 03:26:30;;;;;;;108.00;2.80;;;20.60;45.20;;;;;;5031244;28;20258;-82
2023/08/09 03:28:56;;;;;;;107.77;2.60;;;20.50;44.10;;;;;;5031728;28;20423;-82
2023/08/09 03:31:21;;;;;;;108.20;2.97;;;20.50;45.00;;;;;;5031640;28;20416;-82
2023/08/09 03:33:47;;;;;;;108.93;3.20;;;20.90;44.70;;;;;;5031617;28;20224;-82
2023/08/09 03:36:13;;;;;;;108.30;3.10;;;20.50;45.00;;;;;;5032696;28;20649;-81
2023/08/09 03:38:38;;;;;;;108.30;3.10;;;20.60;43.20;;;;;;5035045;28;20566;-81
2023/08/09 03:41:04;;;;;;;108.40;3.20;;;20.80;42.60;;;;;;5035026;28;20211;-81
2023/08/09 03:43:29;;;;;;;108.17;3.00;;;20.90;42.80;;;;;;5035176;28;20185;-81
2023/08/09 03:45:55;;;;;;;107.87;2.70;;;20.70;40.80;;;;;;5034584;28;20236;-81
2023/08/09 03:48:21;;;;;;;108.33;3.10;;;20.80;40.60;;;;;;5034872;28;20175;-81
2023/08/09 03:50:46;;;;;;;107.80;2.77;;;20.80;41.20;;;;;;5034633;28;20171;-81
2023/08/09 03:53:12;;;;;;;108.17;2.83;;;20.60;42.20;;;;;;5035168;28;20186;-81
2023/08/09 03:55:37;;;;;;;108.20;3.00;;;20.50;43.50;;;;;;5034548;28;20238;-81
2023/08/09 03:58:03;;;;;;;109.17;3.20;;;20.50;42.70;;;;;;5035150;28;20183;-81
2023/08/09 04:00:29;;;;;;;108.20;2.90;;;20.60;42.20;;;;;;5034599;28;20200;-81
2023/08/09 04:02:54;;;;;;;107.90;2.70;;;21.10;42.70;;;;;;5034678;28;20643;-81
2023/08/09 04:05:20;;;;;;;108.17;2.97;;;20.60;43.80;;;;;;5034474;28;20194;-81
2023/08/09 04:07:46;;;;;;;108.17;3.03;;;20.50;43.50;;;;;;5034772;28;20178;-81
2023/08/09 04:10:12;;;;;;;108.10;2.70;;;20.50;43.90;;;;;;5034630;28;20252;-81
2023/08/09 04:12:38;;;;;;;107.97;2.80;;;20.40;44.40;;;;;;5033391;28;20435;-81
2023/08/09 04:15:04;;;;;;;108.70;3.00;;;20.40;44.40;;;;;;5033347;28;20182;-81
2023/08/09 04:17:33;;;;;;;107.83;2.90;;;20.40;43.60;;;;;;5034260;28;20769;-81
2023/08/09 04:19:59;;;;;;;108.17;2.97;;;20.50;43.20;;;;;;5034167;28;20491;-81
2023/08/09 04:22:25;;;;;;;108.60;2.90;;;20.50;43.50;;;;;;5033854;28;20467;-81
2023/08/09 04:24:51;;;;;;;108.00;2.70;;;20.30;43.20;;;;;;5034663;28;20472;-81
2023/08/09 04:27:17;;;;;;;107.70;2.70;;;20.30;43.90;;;;;;5037293;28;20429;-81
2023/08/09 04:29:42;;;;;;;108.13;2.80;;;20.30;42.80;;;;;;5037726;28;20201;-81
2023/08/09 04:32:08;;;;;;;108.17;2.93;;;20.50;43.90;;;;;;5038329;28;20274;-81
2023/08/09 04:34:34;;;;;;;108.00;2.70;;;20.40;43.20;;;;;;5037933;28;20174;-81
2023/08/09 04:36:59;;;;;;;107.90;2.70;;;20.50;43.60;;;;;;5038316;28;20180;-81
2023/08/09 04:39:25;;;;;;;108.07;2.87;;;20.70;44.10;;;;;;5037945;28;20203;-81
2023/08/09 04:41:50;;;;;;;108.07;2.93;;;20.40;44.30;;;;;;5038169;28;20202;-81
2023/08/09 04:44:17;;;;;;;108.13;2.93;;;20.40;43.40;;;;;;5037760;28;20183;-81
2023/08/09 04:46:42;;;;;;;108.67;3.00;;;20.60;44.00;;;;;;5036870;28;20180;-81
2023/08/09 04:49:08;;;;;;;108.00;2.73;;;20.40;43.10;;;;;;5037242;28;21008;-81
2023/08/09 04:51:34;;;;;;;108.17;2.80;;;20.30;43.50;;;;;;5037569;28;20201;-81
2023/08/09 04:54:00;;;;;;;107.97;2.73;;;20.50;43.70;;;;;;5035009;28;20217;-81
2023/08/09 04:56:25;;;;;;;107.60;2.50;;;20.40;43.10;;;;;;5035026;28;20179;-81
2023/08/09 04:58:51;;;;;;;107.90;2.70;;;20.40;43.30;;;;;;5033792;28;20982;-81
2023/08/09 05:01:16;;;;;;;107.90;2.70;;;20.30;43.60;;;;;;5034743;28;20249;-81
2023/08/09 05:03:42;;;;;;;108.50;3.20;;;20.30;44.00;;;;;;5033391;28;20180;-81
2023/08/09 05:06:08;;;;;;;108.10;2.97;;;20.40;44.30;;;;;;5066408;23;20621;-75
2023/08/09 05:08:34;;;;;;;107.80;2.60;;;20.30;44.50;;;;;;5053196;28;20608;-75
2023/08/09 05:10:59;;;;;;;107.60;2.40;;;20.80;44.30;;;;;;5052775;28;20420;-75
2023/08/09 05:13:25;;;;;;;107.90;2.80;;;20.40;43.30;;;;;;5054054;28;20176;-75
2023/08/09 05:15:51;;;;;;;108.00;2.90;;;20.40;42.20;;;;;;5053794;28;20252;-75
2023/08/09 05:18:17;;;;;;;107.87;2.70;;;20.50;43.80;;;;;;5053923;28;20412;-74
2023/08/09 05:20:42;;;;;;;107.80;2.60;;;20.40;43.90;;;;;;5052643;28;20441;-74
2023/08/09 05:23:08;;;;;;;108.07;2.90;;;20.70;44.70;;;;;;5053877;28;20182;-74
2023/08/09 05:25:33;;;;;;;107.80;2.70;;;20.50;44.10;;;;;;5053421;28;20214;-75
2023/08/09 05:27:59;;;;;;;107.90;2.90;;;20.60;40.60;;;;;;5053728;28;20173;-74
2023/08/09 05:30:25;;;;;;;108.07;2.90;;;20.60;43.00;;;;;;5053820;28;20567;-74
2023/08/09 05:32:50;;;;;;;107.70;2.57;;;20.60;43.70;;;;;;5053641;28;20174;-75
2023/08/09 05:35:16;;;;;;;107.77;2.60;;;20.60;42.90;;;;;;5053326;28;20566;-75
2023/08/09 05:37:41;;;;;;;107.73;2.70;;;20.60;44.10;;;;;;5052577;28;20541;-74
2023/08/09 05:40:09;;;;;;;107.63;2.60;;;20.60;43.60;;;;;;5053582;28;20503;-75
2023/08/09 05:42:35;;;;;;;107.97;2.90;;;20.60;43.40;;;;;;5053454;28;20174;-75
2023/08/09 05:45:01;;;;;;;107.80;2.77;;;20.70;44.00;;;;;;5053138;28;20478;-74
2023/08/09 05:47:26;;;;;;;107.87;2.83;;;20.80;44.00;;;;;;5052494;28;20413;-75
2023/08/09 05:49:53;;;;;;;107.90;2.70;;;20.70;44.50;;;;;;5053475;28;20213;-74
2023/08/09 05:52:19;;;;;;;107.60;2.53;;;20.70;44.50;;;;;;5053264;28;20174;-74
2023/08/09 05:54:46;;;;;;;108.10;3.07;;;20.70;44.20;;;;;;5053027;28;20907;-75
2023/08/09 05:57:12;;;;;;;107.80;2.77;;;20.70;44.20;;;;;;5051869;28;20707;-74
2023/08/09 05:59:37;;;;;;;107.90;2.90;;;20.80;43.30;;;;;;5053260;28;20414;-74
2023/08/09 06:02:05;;;;;;;107.87;2.70;;;20.80;43.10;;;;;;5053192;28;20244;-75
2023/08/09 06:04:30;;;;;;;107.57;2.63;;;21.00;43.60;;;;;;5053201;28;20190;-75
2023/08/09 06:06:56;;;;;;;107.57;2.80;;;21.10;36.60;;;;;;5052752;28;20455;-74
2023/08/09 06:09:22;;;;;;;107.40;2.70;;;21.30;36.90;;;;;;5053136;28;20631;-75
2023/08/09 06:11:47;;;;;;;108.00;2.70;;;20.80;35.20;;;;;;5052943;28;20650;-75
2023/08/09 06:14:13;;;;;;;107.53;2.67;;;21.10;34.30;;;;;;5052855;28;20539;-74
2023/08/09 06:16:38;;;;;;;109.50;3.63;;;21.30;32.80;;;;;;5052493;28;20196;-74
2023/08/09 06:19:04;;;;;;;107.37;2.63;;;21.30;33.00;;;;;;5051643;28;20182;-75
2023/08/09 06:21:29;;;;;;;107.27;2.63;;;21.40;34.10;;;;;;5052646;28;20508;-74
2023/08/09 06:23:55;;;;;;;107.07;2.70;;;21.40;31.70;;;;;;5052799;28;20207;-74
2023/08/09 06:26:20;;;;;;;107.13;2.73;;;21.80;32.20;;;;;;5052284;28;20222;-75
2023/08/09 06:28:48;;;;;;;107.20;2.60;;;21.70;35.20;;;;;;5052452;28;20180;-75
2023/08/09 06:31:16;;;;;;;107.20;2.83;;;21.70;31.80;;;;;;5052754;28;20172;-75
2023/08/09 06:33:42;;;;;;;108.70;2.90;;;21.50;31.70;;;;;;5052478;28;20407;-75
2023/08/09 06:36:09;;;;;;;107.37;3.10;;;21.60;31.30;;;;;;5052097;28;20427;-75
2023/08/09 06:38:34;;;;;;;106.67;2.70;;;22.00;30.80;;;;;;5052349;28;20770;-75
2023/08/09 06:41:00;;;;;;;106.80;2.60;;;22.00;32.00;;;;;;5052465;28;20412;-75
2023/08/09 06:43:26;;;;;;;106.67;2.77;;;22.20;29.80;;;;;;5052450;28;20590;-74
2023/08/09 06:45:52;;;;;;;106.43;2.70;;;22.10;31.30;;;;;;5051995;28;20236;-75
2023/08/09 06:48:17;;;;;;;106.80;2.77;;;21.60;31.70;;;;;;5052205;28;20176;-75
2023/08/09 06:50:43;;;;;;;106.60;2.60;;;21.90;31.20;;;;;;5051927;28;20417;-75
2023/08/09 06:53:09;;;;;;;106.77;2.87;;;22.30;29.90;;;;;;5052230;28;20184;-75
2023/08/09 06:55:34;;;;;;;106.80;3.10;;;22.30;30.20;;;;;;5051905;28;20193;-75
2023/08/09 06:58:00;;;;;;;106.37;2.80;;;22.00;29.90;;;;;;5052108;28;20639;-74
2023/08/09 07:00:26;;;;;;;108.67;2.73;;;21.60;31.20;;;;;;5052159;28;20173;-74
2023/08/09 07:02:52;;;;;;;106.27;2.80;;;22.00;30.30;;;;;;5051964;28;20541;-76
2023/08/09 07:05:21;;;;;;;106.17;2.77;;;21.80;30.00;;;;;;5051459;28;20471;-75
2023/08/09 07:07:51;;;;;;;105.40;2.40;;;21.70;30.70;;;;;;5051990;28;20194;-76
2023/08/09 07:10:17;;;;;;;106.57;2.83;;;21.90;29.50;;;;;;5052165;28;20393;-75
2023/08/09 07:12:43;;;;;;;105.77;2.70;;;22.10;31.00;;;;;;5051965;28;20419;-75
2023/08/09 07:15:09;;;;;;;105.83;2.87;;;21.10;32.10;;;;;;5051623;28;20178;-75
2023/08/09 07:17:36;;;;;;;105.40;2.60;;;21.50;31.30;;;;;;5051743;28;20507;-75
2023/08/09 07:20:07;;;;;;;105.50;2.80;;;21.20;32.30;;;;;;5051827;28;20424;-76
2023/08/09 07:22:34;;;;;;;105.07;2.50;;;21.30;31.80;;;;;;5051720;28;20419;-75
2023/08/09 07:25:00;;;;;;;105.07;2.70;;;21.60;31.70;;;;;;5051383;28;20538;-75
2023/08/09 07:27:25;;;;;;;104.80;2.50;;;21.60;31.30;;;;;;5051709;28;20405;-76
2023/08/09 07:29:53;;;;;;;104.97;2.80;;;21.20;32.80;;;;;;5051810;28;20409;-75
2023/08/09 07:32:18;;;;;;;104.77;2.60;;;21.50;32.50;;;;;;5051630;28;20177;-75
2023/08/09 07:34:44;;;;;;;105.10;2.97;;;21.30;32.60;;;;;;5051378;28;20779;-75
2023/08/09 07:37:09;;;;;;;104.57;2.63;;;21.10;33.00;;;;;;5051661;28;20308;-74
2023/08/09 07:39:35;;;;;;;104.73;2.73;;;21.80;32.80;;;;;;5050336;28;20587;-75
2023/08/09 07:42:01;;;;;;;105.00;2.87;;;21.50;32.00;;;;;;5051614;28;20219;-75
2023/08/09 07:44:27;;;;;;;105.10;3.00;;;21.60;32.30;;;;;;5051290;28;20214;-75
2023/08/09 07:46:52;;;;;;;104.47;2.50;;;21.40;33.10;;;;;;5051356;28;20638;-75
2023/08/09 07:49:18;;;;;;;104.53;2.53;;;21.60;33.00;;;;;;5050214;28;20177;-75
2023/08/09 07:51:43;;;;;;;104.30;2.50;;;22.00;32.60;;;;;;5051737;28;20186;-75
2023/08/09 07:54:09;;;;;;;105.87;3.50;;;22.10;32.50;;;;;;5051510;28;20174;-75
2023/08/09 07:56:34;;;;;;;104.57;2.70;;;22.60;30.80;;;;;;5051167;28;20192;-74
2023/08/09 07:59:00;;;;;;;104.47;2.70;;;22.30;31.40;;;;;;5051395;28;20175;-75
2023/08/09 08:01:26;;;;;;;104.57;2.50;;;21.90;33.20;;;;;;5052454;28;20188;-74
2023/08/09 08:03:51;;;;;;;104.60;2.83;;;21.40;33.40;;;;;;5055468;28;20617;-75
2023/08/09 08:06:18;;;;;;;105.20;2.57;;;21.00;35.00;;;;;;5054823;28;20213;-75
2023/08/09 08:08:45;;;;;;;105.20;2.87;;;21.20;34.40;;;;;;5055216;28;20176;-74
2023/08/09 08:11:11;;;;;;;104.17;2.50;;;21.20;34.90;;;;;;5055288;28;20406;-75
2023/08/09 08:13:37;;;;;;;104.37;2.60;;;21.50;34.70;;;;;;5055124;28;20937;-75
2023/08/09 08:16:04;;;;;;;104.83;2.90;;;21.40;34.30;;;;;;5054697;28;20426;-75
2023/08/09 08:18:32;;;;;;;104.37;2.57;;;21.30;34.50;;;;;;5055101;28;20178;-74
2023/08/09 08:20:59;;;;;;;104.13;2.40;;;21.30;34.80;;;;;;5053904;28;20519;-75
2023/08/09 08:23:25;;;;;;;104.40;2.63;;;21.30;34.70;;;;;;5054925;28;20408;-75
2023/08/09 08:25:51;;;;;;;104.27;2.57;;;21.50;35.40;;;;;;5054562;28;20528;-75
2023/08/09 08:28:16;;;;;;;104.30;2.67;;;22.00;34.30;;;;;;5054889;28;20169;-74
2023/08/09 08:30:42;;;;;;;104.10;2.60;;;21.40;34.60;;;;;;5054764;28;20269;-75
2023/08/09 08:33:08;;;;;;;104.60;2.80;;;21.80;34.80;;;;;;5054831;28;20169;-74
2023/08/09 08:35:43;;;;;;;104.20;2.63;;;21.80;33.80;;;;;;5053047;28;20198;-75
2023/08/09 08:38:09;;;;;;;104.27;2.70;;;21.40;34.70;;;;;;5054830;28;20254;-75
2023/08/09 08:40:35;;;;;;;103.77;2.40;;;21.00;35.90;;;;;;5054707;28;20448;-75
2023/08/09 08:43:00;;;;;;;104.17;2.60;;;21.50;35.60;;;;;;5054637;28;20420;-75
2023/08/09 08:45:26;;;;;;;103.90;2.70;;;21.40;35.40;;;;;;5054156;28;20218;-74
2023/08/09 08:47:51;;;;;;;104.07;2.50;;;21.30;35.20;;;;;;5053259;28;20171;-75
2023/08/09 08:50:18;;;;;;;104.40;2.93;;;21.50;35.70;;;;;;5054561;28;20172;-75
2023/08/09 08:52:47;;;;;;;105.60;2.90;;;21.60;34.80;;;;;;5054652;28;20229;-74
2023/08/09 08:55:13;;;;;;;103.97;2.60;;;21.50;35.70;;;;;;5054070;28;20771;-74
2023/08/09 08:57:40;;;;;;;105.67;3.73;;;21.50;35.20;;;;;;5054401;28;20506;-75
2023/08/09 09:00:15;;;;;;;104.13;2.93;;;22.20;32.50;;;;;;5054301;28;20903;-74
2023/08/09 09:02:43;;;;;;;104.10;3.00;;;21.90;32.90;;;;;;5054318;28;20405;-75
2023/08/09 09:05:09;;;;;;;103.50;2.40;;;21.40;34.60;;;;;;5052481;28;20452;-73
2023/08/09 09:07:36;;;;;;;103.67;2.60;;;21.20;35.60;;;;;;5054252;28;20406;-74
2023/08/09 09:10:06;;;;;;;106.40;2.90;;;21.10;35.10;;;;;;5052798;28;20418;-74
2023/08/09 09:12:35;;;;;;;103.87;2.90;;;21.10;35.80;;;;;;5054043;28;20405;-74
2023/08/09 09:15:03;;;;;;;103.73;2.90;;;21.00;36.00;;;;;;5053574;28;20416;-75
2023/08/09 09:17:29;;;;;;;104.80;3.20;;;20.90;34.50;;;;;;5054015;28;20408;-74
2023/08/09 09:19:55;;;;;;;105.40;3.37;;;20.70;35.40;;;;;;5053898;28;20421;-75
2023/08/09 09:22:27;;;;;;;102.97;2.60;;;21.00;35.50;;;;;;5053927;28;20170;-74
2023/08/09 09:25:01;;;;;;;103.70;3.20;;;20.90;35.60;;;;;;5053287;28;20198;-74
2023/08/09 09:27:33;;;;;;;103.30;2.63;;;21.00;35.10;;;;;;5053848;28;20909;-74
2023/08/09 09:30:04;;;;;;;103.23;2.80;;;21.20;35.60;;;;;;5053722;28;20492;-74
2023/08/09 09:32:32;;;;;;;103.33;2.80;;;21.30;34.30;;;;;;5053777;28;20400;-74
2023/08/09 09:34:58;;;;;;;103.50;3.03;;;21.30;35.50;;;;;;5053295;28;20542;-75
2023/08/09 09:37:26;;;;;;;103.00;2.57;;;21.10;34.10;;;;;;5053592;28;20965;-74
2023/08/09 09:39:52;;;;;;;103.33;2.93;;;21.60;34.50;;;;;;5053554;28;20226;-74
2023/08/09 09:42:28;;;;;;;103.07;2.67;;;21.10;33.90;;;;;;5052249;28;20411;-74
2023/08/09 09:45:04;;;;;;;103.07;2.50;;;21.20;35.70;;;;;;5053427;28;20214;-75
2023/08/09 09:47:33;;;;;;;103.37;2.60;;;20.90;35.10;;;;;;5053587;28;20408;-75
2023/08/09 09:49:59;;;;;;;103.57;2.80;;;21.10;34.60;;;;;;5053247;28;20430;-74
2023/08/09 09:52:28;;;;;;;102.73;2.50;;;21.20;35.60;;;;;;5053311;28;20455;-74
2023/08/09 09:54:55;;;;;;;104.07;2.80;;;21.50;34.50;;;;;;5052884;28;20180;-75
2023/08/09 09:57:20;;;;;;;102.87;2.57;;;22.10;33.20;;;;;;5053553;28;20770;-74
2023/08/09 09:59:46;;;;;;;103.30;2.80;;;22.70;32.40;;;;;;5053101;28;20410;-74
2023/08/09 10:02:12;;;;;;;102.97;2.47;;;22.50;31.90;;;;;;5053170;28;20196;-75
2023/08/09 10:04:39;;;;;;;103.30;2.83;;;23.10;31.10;;;;;;5051334;28;20294;-74
2023/08/09 10:07:06;;;;;;;103.17;2.77;;;22.80;30.90;;;;;;5052937;28;20451;-74
2023/08/09 10:09:32;;;;;;;102.73;2.80;;;22.80;31.30;;;;;;5053037;28;20461;-74
2023/08/09 10:11:59;;;;;;;102.63;2.73;;;22.10;32.10;;;;;;5052945;28;20519;-74
2023/08/09 10:14:28;;;;;;;102.63;2.50;;;22.10;33.00;;;;;;5052766;28;20477;-74
2023/08/09 10:16:54;;;;;;;102.97;2.90;;;21.50;33.80;;;;;;5052485;28;20424;-75
2023/08/09 10:19:23;;;;;;;103.00;2.80;;;21.40;32.90;;;;;;5052882;28;20898;-74
2023/08/09 10:21:52;;;;;;;103.00;2.90;;;21.80;33.40;;;;;;5052669;28;20648;-74
2023/08/09 10:24:18;;;;;;;102.87;2.67;;;21.20;33.70;;;;;;5051068;28;20784;-74
2023/08/09 10:26:49;;;;;;;102.67;2.50;;;21.20;34.70;;;;;;5052273;28;20440;-75
2023/08/09 10:29:19;;;;;;;102.80;2.50;;;21.00;34.40;;;;;;5052604;28;20412;-74
2023/08/09 10:31:48;;;;;;;103.27;2.87;;;20.90;35.40;;;;;;5052572;28;20397;-74
2023/08/09 10:34:14;;;;;;;102.57;2.40;;;21.50;34.30;;;;;;5052511;28;20922;-74
2023/08/09 10:36:40;;;;;;;102.90;2.70;;;21.30;34.80;;;;;;5052175;28;20455;-74
2023/08/09 10:39:14;;;;;;;102.90;3.07;;;21.50;34.50;;;;;;5052696;28;20437;-74
2023/08/09 10:42:06;;;;;;;103.10;2.90;;;21.20;35.10;;;;;;5051098;28;20177;-74
2023/08/09 10:44:48;;;;;;;102.77;2.83;;;21.60;35.10;;;;;;5052474;28;20413;-74
2023/08/09 10:47:22;;;;;;;102.70;2.43;;;22.10;33.30;;;;;;5051160;28;20440;-74
2023/08/09 10:49:47;;;;;;;103.67;2.80;;;21.90;33.60;;;;;;5052320;28;20879;-75
2023/08/09 10:52:33;;;;;;;104.10;2.90;;;22.30;33.90;;;;;;5050799;28;20509;-75
2023/08/09 10:55:28;;;;;;;102.73;2.80;;;22.70;31.60;;;;;;5051976;28;20175;-74
2023/08/09 10:57:55;;;;;;;102.37;2.43;;;22.10;32.90;;;;;;5050791;28;20423;-75
2023/08/09 11:00:22;;;;;;;103.43;2.73;;;22.00;33.60;;;;;;5052124;28;20781;-74
2023/08/09 11:02:49;;;;;;;102.97;2.70;;;22.60;32.50;;;;;;5050881;28;20422;-75
2023/08/09 11:07:45;;;;;;;103.10;2.93;;;22.90;31.80;;;;;;5055423;28;20510;-82
2023/08/09 11:10:12;;;;;;;103.10;2.90;;;22.60;32.50;;;;;;5058303;28;20411;-82
2023/08/09 11:12:43;;;;;;;102.63;2.40;;;23.30;32.80;;;;;;5057078;28;20543;-82
2023/08/09 11:15:09;;;;;;;102.77;2.60;;;23.60;31.70;;;;;;5055144;28;20962;-81
2023/08/09 11:17:37;;;;;;;103.07;2.77;;;23.00;32.60;;;;;;5054678;28;20433;-82
2023/08/09 11:20:13;;;;;;;103.13;2.80;;;23.00;31.80;;;;;;5054096;28;20819;-82
2023/08/09 11:22:43;;;;;;;102.77;2.50;;;23.20;31.70;;;;;;5054992;28;20496;-82
2023/08/09 11:25:09;;;;;;;104.37;2.93;;;22.50;33.10;;;;;;5053215;28;20561;-81
2023/08/09 11:27:38;;;;;;;102.77;2.70;;;22.30;33.80;;;;;;5052806;28;20967;-81
2023/08/09 11:30:08;;;;;;;102.90;3.00;;;22.20;34.40;;;;;;5052660;28;20195;-81
2023/08/09 11:32:34;;;;;;;102.83;2.70;;;22.60;32.60;;;;;;5052421;28;20913;-83
2023/08/09 11:34:59;;;;;;;103.97;2.80;;;23.10;31.70;;;;;;5053231;28;20903;-81
2023/08/09 11:37:25;;;;;;;102.77;2.70;;;22.60;34.10;;;;;;5059347;28;20482;-82
2023/08/09 11:39:51;;;;;;;102.80;2.80;;;22.70;33.40;;;;;;5056494;28;20183;-82
2023/08/09 11:42:16;;;;;;;102.57;2.63;;;22.90;32.00;;;;;;5056003;28;20463;-81
2023/08/09 11:44:43;;;;;;;103.00;3.10;;;22.60;32.80;;;;;;5055735;28;20287;-82
2023/08/09 11:47:09;;;;;;;103.37;2.90;;;22.80;32.90;;;;;;5056374;28;20221;-81
2023/08/09 11:49:35;;;;;;;102.57;2.50;;;22.10;34.30;;;;;;5056365;28;20435;-82
2023/08/09 11:52:01;;;;;;;102.57;2.50;;;22.20;34.20;;;;;;5060256;28;20908;-82
2023/08/09 11:54:28;;;;;;;102.77;2.60;;;22.30;33.70;;;;;;5058932;28;20177;-81
2023/08/09 11:56:54;;;;;;;102.83;2.77;;;22.30;34.00;;;;;;5063400;28;20430;-83
2023/08/09 11:59:22;;;;;;;102.80;2.80;;;22.40;33.00;;;;;;5061933;28;20417;-80
2023/08/09 12:01:50;;;;;;;102.97;2.90;;;22.60;33.10;;;;;;5060172;28;20536;-82
2023/08/09 12:04:20;;;;;;;103.00;2.93;;;22.40;32.90;;;;;;5061393;28;20882;-81
2023/08/09 12:06:55;;;;;;;103.27;2.80;;;22.50;34.00;;;;;;5060879;28;20448;-82
2023/08/09 12:09:35;;;;;;;103.00;2.73;;;22.90;32.10;;;;;;5060495;28;20413;-81
2023/08/09 12:12:18;;;;;;;102.60;2.70;;;23.50;32.60;;;;;;5060712;28;20397;-82
2023/08/09 12:14:49;;;;;;;103.13;3.03;;;23.60;31.20;;;;;;5060812;28;20811;-81
2023/08/09 12:17:24;;;;;;;103.00;2.90;;;23.10;33.40;;;;;;5061305;28;20430;-81
2023/08/09 12:20:04;;;;;;;103.17;2.80;;;23.70;32.10;;;;;;5060575;28;20406;-81
2023/08/09 12:22:30;;;;;;;103.37;2.73;;;24.40;29.90;;;;;;5060912;28;20406;-82
2023/08/09 12:24:57;;;;;;;102.50;2.50;;;24.10;29.80;;;;;;5059995;28;20445;-82
2023/08/09 12:27:23;;;;;;;103.20;3.03;;;24.10;29.90;;;;;;5062046;28;20430;-81
2023/08/09 12:29:49;;;;;;;102.87;2.80;;;24.10;30.20;;;;;;5059729;28;20399;-81